KRKR/RKR METAR and TAF weather

Enter ICAO airport designator
Station Type Date Time Source
KRKR METAR 2021/04/13 23:15 UTC NOAA

KRKR 132315Z AUTO 02004KT 10SM CLR 22/08 A3003 RMK AO2


Station Type Date Time Source
KRKR Decoded METAR 2021/04/13 23:15 UTC NOAA

Poteau, Robert S Kerr Airport, OK, United States (KRKR) 35-01-18N 094-37-17W
Apr 13, 2021 - 07:15 PM EDT / 2021.04.13 2315 UTC
Wind: from the NNE (020 degrees) at 5 MPH (4 KT):0
Visibility: 10 mile(s):0
Sky conditions: clear
Temperature: 71 F (22 C)
Dew Point: 46 F (8 C)
Relative Humidity: 40%
Pressure (altimeter): 30.03 in. Hg (1016 hPa)
ob: KRKR 132315Z AUTO 02004KT 10SM CLR 22/08 A3003 RMK AO2
cycle: 23

Station Type Date Time Source
KRKR TAF UTC NOAA

Error!

Example: see airport list